Time;durP1;ratioP1;P1;durP2;ratioP2;P2;SDS_P1;SDS_P2;PMS_P1;PMS_P2;Temp;Humidity;BMP_temperature;BMP_pressure;BME280_temperature;BME280_humidity;BME280_pressure;Samples;Min_cycle;Max_cycle;Signal;HPM_P1;HPM_P2
2022/04/24 00:01:06;;;;;;;5.63;4.47;;;;;;;;;;5034373;28;20204;-73
2022/04/24 00:03:35;;;;;;;6.90;4.50;;;;;;;;;;5035137;28;20218;-73
2022/04/24 00:06:04;;;;;;;5.03;4.27;;;;;;;;;;5036201;28;20199;-73
2022/04/24 00:08:32;;;;;;;5.50;4.30;;;;;;;;;;5034912;28;20252;-73
2022/04/24 00:11:04;;;;;;;4.97;4.50;;;;;;;;;;5030155;28;20210;-73
2022/04/24 00:13:37;;;;;;;4.63;4.17;;;;;;;;;;5029332;28;20674;-73
2022/04/24 00:16:06;;;;;;;4.93;4.43;;;;;;;;;;5034992;28;20254;-73
2022/04/24 00:18:37;;;;;;;5.87;4.17;;;;;;;;;;5031791;28;20314;-74
2022/04/24 00:21:06;;;;;;;4.90;4.20;;;;;;;;;;5033970;28;20208;-74
2022/04/24 00:23:34;;;;;;;5.00;4.50;;;;;;;;;;5034776;28;20659;-73
2022/04/24 00:26:02;;;;;;;6.17;4.53;;;;;;;;;;5032921;28;20204;-74
2022/04/24 00:28:32;;;;;;;5.00;4.37;;;;;;;;;;5034617;28;20288;-74
2022/04/24 00:31:01;;;;;;;4.97;4.47;;;;;;;;;;5035611;28;20356;-74
2022/04/24 00:33:29;;;;;;;4.67;4.27;;;;;;;;;;5034806;28;20281;-73
2022/04/24 00:35:57;;;;;;;5.70;4.13;;;;;;;;;;5076228;22;20629;-73
2022/04/24 00:38:26;;;;;;;5.77;4.40;;;;;;;;;;5007056;28;20297;-73
2022/04/24 00:40:56;;;;;;;5.57;4.27;;;;;;;;;;5008876;28;20209;-73
2022/04/24 00:43:25;;;;;;;5.10;4.70;;;;;;;;;;5014563;28;20209;-73
2022/04/24 00:45:55;;;;;;;5.07;4.57;;;;;;;;;;5015129;28;20204;-73
2022/04/24 00:48:24;;;;;;;5.90;4.37;;;;;;;;;;5014949;28;20226;-74
2022/04/24 00:51:10;;;;;;;4.77;4.10;;;;;;;;;;5010212;28;20205;-73
2022/04/24 00:53:39;;;;;;;6.00;4.77;;;;;;;;;;4995690;28;20215;-73
2022/04/24 00:56:07;;;;;;;6.23;4.70;;;;;;;;;;5014777;28;20208;-73
2022/04/24 00:58:36;;;;;;;6.50;4.33;;;;;;;;;;5014174;28;20224;-73
2022/04/24 01:01:06;;;;;;;5.23;4.47;;;;;;;;;;5011510;28;20227;-73
2022/04/24 01:03:34;;;;;;;4.90;4.50;;;;;;;;;;4998527;28;20212;-73
2022/04/24 01:06:03;;;;;;;5.40;4.70;;;;;;;;;;5014223;28;20208;-74
2022/04/24 01:08:32;;;;;;;5.87;4.30;;;;;;;;;;5005327;28;20701;-73
2022/04/24 01:11:00;;;;;;;4.87;4.33;;;;;;;;;;5008215;28;20603;-72
2022/04/24 01:13:31;;;;;;;5.60;4.50;;;;;;;;;;5013594;28;20208;-73
2022/04/24 01:16:00;;;;;;;4.90;4.40;;;;;;;;;;5014500;28;20204;-74
2022/04/24 01:18:30;;;;;;;4.83;4.20;;;;;;;;;;5013502;28;20315;-73
2022/04/24 01:21:09;;;;;;;4.50;4.10;;;;;;;;;;5014247;28;20196;-73
2022/04/24 01:23:39;;;;;;;4.43;4.03;;;;;;;;;;5012857;28;20223;-73
2022/04/24 01:26:07;;;;;;;4.97;4.40;;;;;;;;;;5013384;28;20208;-73
2022/04/24 01:28:36;;;;;;;4.97;3.83;;;;;;;;;;5012781;28;20256;-73
2022/04/24 01:31:05;;;;;;;5.17;4.13;;;;;;;;;;5013790;28;20668;-73
2022/04/24 01:33:34;;;;;;;5.73;4.33;;;;;;;;;;5013772;28;20208;-73
2022/04/24 01:36:03;;;;;;;4.73;4.23;;;;;;;;;;5012554;28;20216;-74
2022/04/24 01:38:33;;;;;;;5.40;4.20;;;;;;;;;;5013123;28;20224;-73
2022/04/24 01:41:01;;;;;;;5.17;3.83;;;;;;;;;;5013778;28;20208;-73
2022/04/24 01:43:30;;;;;;;5.70;4.00;;;;;;;;;;4998500;28;20218;-73
2022/04/24 01:45:59;;;;;;;4.80;3.93;;;;;;;;;;4998085;28;20193;-73
2022/04/24 01:48:28;;;;;;;5.40;4.17;;;;;;;;;;5012684;28;20232;-73
2022/04/24 01:50:56;;;;;;;4.37;3.97;;;;;;;;;;5013392;28;20209;-73
2022/04/24 01:53:32;;;;;;;5.53;4.20;;;;;;;;;;5002725;28;20209;-73
2022/04/24 01:59:32;;;;;;;7.03;4.43;;;;;;;;;;4994186;28;20219;-73
2022/04/24 02:02:00;;;;;;;6.00;4.87;;;;;;;;;;4994034;28;20205;-74
2022/04/24 02:04:29;;;;;;;4.93;4.43;;;;;;;;;;5003125;28;20204;-74
2022/04/24 02:06:58;;;;;;;6.43;4.47;;;;;;;;;;5012446;28;20228;-74
2022/04/24 02:09:28;;;;;;;5.60;4.40;;;;;;;;;;5013775;28;20278;-73
2022/04/24 02:11:56;;;;;;;5.70;4.30;;;;;;;;;;5012910;28;20609;-74
2022/04/24 02:14:25;;;;;;;6.10;4.50;;;;;;;;;;5013243;28;20659;-74
2022/04/24 02:16:54;;;;;;;5.53;4.13;;;;;;;;;;5003564;28;20232;-74
2022/04/24 02:19:22;;;;;;;5.83;4.30;;;;;;;;;;5000063;28;20201;-74
2022/04/24 02:21:51;;;;;;;5.70;4.50;;;;;;;;;;5012666;28;20286;-73
2022/04/24 02:24:19;;;;;;;6.00;4.23;;;;;;;;;;5012250;28;20263;-74
2022/04/24 02:26:49;;;;;;;5.27;4.50;;;;;;;;;;5013194;28;20247;-74
2022/04/24 02:29:18;;;;;;;5.17;4.27;;;;;;;;;;5011383;28;20225;-74
2022/04/24 02:31:47;;;;;;;5.17;4.13;;;;;;;;;;5012930;28;20608;-73
2022/04/24 02:34:15;;;;;;;4.47;4.07;;;;;;;;;;5007479;28;20678;-74
2022/04/24 02:36:44;;;;;;;4.43;4.03;;;;;;;;;;5012076;28;20216;-74
2022/04/24 02:39:12;;;;;;;4.73;4.10;;;;;;;;;;5010770;28;20258;-73
2022/04/24 02:41:41;;;;;;;6.27;5.00;;;;;;;;;;5013349;28;20205;-74
2022/04/24 02:44:10;;;;;;;6.37;4.43;;;;;;;;;;5012811;28;20271;-73
2022/04/24 02:46:39;;;;;;;4.77;4.37;;;;;;;;;;5012982;28;20262;-74
2022/04/24 02:49:07;;;;;;;5.33;4.63;;;;;;;;;;5010904;28;20228;-74
2022/04/24 02:51:36;;;;;;;5.63;4.43;;;;;;;;;;5011945;28;20215;-73
2022/04/24 02:54:05;;;;;;;4.60;4.20;;;;;;;;;;5013360;28;20215;-74
2022/04/24 02:56:33;;;;;;;6.07;4.60;;;;;;;;;;5012555;28;20659;-74
2022/04/24 02:59:02;;;;;;;5.10;4.30;;;;;;;;;;5011874;28;20204;-73
2022/04/24 03:01:33;;;;;;;4.50;4.10;;;;;;;;;;5012903;28;20204;-74
2022/04/24 03:04:02;;;;;;;4.70;4.20;;;;;;;;;;5012183;28;20726;-73
2022/04/24 03:06:31;;;;;;;7.90;5.00;;;;;;;;;;5012016;28;20255;-73
2022/04/24 03:09:00;;;;;;;5.30;4.53;;;;;;;;;;5006907;28;20216;-74
2022/04/24 03:11:45;;;;;;;5.07;4.30;;;;;;;;;;5012903;28;20231;-74
2022/04/24 03:14:14;;;;;;;5.43;4.73;;;;;;;;;;5013234;28;20204;-74
2022/04/24 03:16:48;;;;;;;5.20;4.70;;;;;;;;;;5012593;28;20209;-74
2022/04/24 03:19:19;;;;;;;6.10;4.40;;;;;;;;;;5011616;28;20197;-74
2022/04/24 03:21:48;;;;;;;6.83;4.60;;;;;;;;;;5012191;28;20204;-73
2022/04/24 03:24:17;;;;;;;5.00;4.50;;;;;;;;;;5008310;28;20209;-73
2022/04/24 03:26:45;;;;;;;6.40;4.50;;;;;;;;;;4997147;28;20276;-74
2022/04/24 03:29:13;;;;;;;5.23;4.30;;;;;;;;;;5013547;28;20228;-74
2022/04/24 03:31:42;;;;;;;5.53;4.30;;;;;;;;;;5015803;28;20205;-73
2022/04/24 03:34:11;;;;;;;4.77;4.37;;;;;;;;;;5015467;28;20209;-73
2022/04/24 03:36:40;;;;;;;5.47;4.57;;;;;;;;;;5016246;28;20265;-74
2022/04/24 03:39:08;;;;;;;5.47;4.50;;;;;;;;;;5016413;28;20657;-74
2022/04/24 03:41:37;;;;;;;4.93;4.43;;;;;;;;;;5008249;28;20247;-74
2022/04/24 03:44:05;;;;;;;4.63;3.90;;;;;;;;;;4996456;28;20209;-74
2022/04/24 03:46:34;;;;;;;5.63;4.37;;;;;;;;;;5014962;28;20204;-74
2022/04/24 03:49:04;;;;;;;4.70;4.20;;;;;;;;;;5014976;28;20623;-74
2022/04/24 03:51:34;;;;;;;5.30;4.80;;;;;;;;;;5015783;28;20258;-74
2022/04/24 03:54:03;;;;;;;6.30;4.30;;;;;;;;;;5015715;28;20259;-74
2022/04/24 03:56:32;;;;;;;4.80;4.40;;;;;;;;;;5015689;28;20209;-74
2022/04/24 03:59:00;;;;;;;4.93;4.33;;;;;;;;;;5014104;28;20204;-74
2022/04/24 04:01:29;;;;;;;5.70;3.90;;;;;;;;;;5015703;28;20262;-74
2022/04/24 04:03:57;;;;;;;5.27;4.43;;;;;;;;;;5015775;28;20230;-74
2022/04/24 04:06:26;;;;;;;5.63;4.80;;;;;;;;;;5015298;28;20212;-74
2022/04/24 04:08:56;;;;;;;5.13;4.37;;;;;;;;;;5014031;28;20623;-74
2022/04/24 04:11:26;;;;;;;8.20;4.57;;;;;;;;;;5014644;28;20263;-74
2022/04/24 04:13:54;;;;;;;6.40;4.70;;;;;;;;;;5015072;28;20208;-74
2022/04/24 04:16:23;;;;;;;7.90;5.70;;;;;;;;;;5015816;28;20208;-74
2022/04/24 04:18:52;;;;;;;7.40;5.20;;;;;;;;;;5014879;28;20204;-74
2022/04/24 04:21:21;;;;;;;7.70;5.80;;;;;;;;;;5013787;28;20259;-73
2022/04/24 04:23:49;;;;;;;6.70;5.50;;;;;;;;;;5010229;28;20203;-74
2022/04/24 04:26:19;;;;;;;5.70;5.10;;;;;;;;;;5015038;28;20188;-74
2022/04/24 04:28:48;;;;;;;6.57;4.80;;;;;;;;;;5015276;28;20232;-74
2022/04/24 04:31:17;;;;;;;5.57;4.80;;;;;;;;;;5015439;28;20198;-74
2022/04/24 04:33:45;;;;;;;5.20;4.70;;;;;;;;;;5007271;28;20209;-74
2022/04/24 04:36:14;;;;;;;4.77;4.27;;;;;;;;;;5014784;28;20250;-73
2022/04/24 04:38:42;;;;;;;6.30;4.80;;;;;;;;;;5057578;22;20240;-74
2022/04/24 04:41:11;;;;;;;6.77;4.33;;;;;;;;;;5014719;28;20733;-73
2022/04/24 04:43:40;;;;;;;7.20;4.50;;;;;;;;;;5014933;28;20421;-73
2022/04/24 04:46:09;;;;;;;6.90;4.50;;;;;;;;;;5015216;28;20211;-73
2022/04/24 04:48:37;;;;;;;5.03;4.60;;;;;;;;;;5013747;28;20697;-74
2022/04/24 04:51:06;;;;;;;4.97;4.53;;;;;;;;;;5014405;28;20259;-74
2022/04/24 04:53:35;;;;;;;5.17;4.43;;;;;;;;;;5006211;28;20224;-73
2022/04/24 04:56:03;;;;;;;6.47;4.57;;;;;;;;;;5013623;28;20205;-74
2022/04/24 04:58:32;;;;;;;6.43;4.40;;;;;;;;;;5014164;28;20230;-74
2022/04/24 05:01:02;;;;;;;5.63;4.27;;;;;;;;;;5013759;28;20239;-74
2022/04/24 05:03:31;;;;;;;5.00;4.47;;;;;;;;;;5013297;28;20287;-74
2022/04/24 05:06:00;;;;;;;6.37;4.30;;;;;;;;;;5013640;28;20294;-74
2022/04/24 05:08:28;;;;;;;4.80;4.07;;;;;;;;;;5013536;28;20228;-74
2022/04/24 05:10:57;;;;;;;6.73;4.47;;;;;;;;;;5011818;28;20363;-74
2022/04/24 05:13:25;;;;;;;4.73;4.17;;;;;;;;;;5013569;28;20217;-74
2022/04/24 05:15:55;;;;;;;6.50;4.50;;;;;;;;;;5013182;28;20204;-74
2022/04/24 05:18:28;;;;;;;4.83;4.27;;;;;;;;;;5013442;28;20752;-74
2022/04/24 05:20:57;;;;;;;4.23;3.80;;;;;;;;;;5013225;28;20644;-73
2022/04/24 05:23:26;;;;;;;5.53;4.27;;;;;;;;;;5013374;28;20204;-74
2022/04/24 05:25:55;;;;;;;5.53;3.90;;;;;;;;;;5014106;28;20208;-74
2022/04/24 05:28:24;;;;;;;4.83;4.33;;;;;;;;;;5013157;28;20281;-73
2022/04/24 05:30:52;;;;;;;4.53;4.00;;;;;;;;;;5013069;28;20298;-74
2022/04/24 05:33:21;;;;;;;5.23;3.80;;;;;;;;;;5010578;28;20219;-73
2022/04/24 05:35:51;;;;;;;5.50;4.17;;;;;;;;;;5012826;28;20656;-73
2022/04/24 05:38:19;;;;;;;5.07;4.17;;;;;;;;;;5013808;28;20239;-73
2022/04/24 05:40:48;;;;;;;4.53;4.07;;;;;;;;;;5013792;28;20251;-74
2022/04/24 05:43:17;;;;;;;4.37;3.80;;;;;;;;;;5012206;28;20235;-74
2022/04/24 05:45:45;;;;;;;5.07;4.20;;;;;;;;;;5011587;28;20251;-73
2022/04/24 05:48:14;;;;;;;7.37;4.10;;;;;;;;;;5012123;28;20312;-73
2022/04/24 05:50:43;;;;;;;4.80;3.90;;;;;;;;;;5009187;28;20297;-73
2022/04/24 05:53:13;;;;;;;4.73;4.23;;;;;;;;;;5011565;28;20204;-74
2022/04/24 05:55:42;;;;;;;4.30;3.90;;;;;;;;;;5005257;28;20244;-74
2022/04/24 05:58:19;;;;;;;4.50;4.10;;;;;;;;;;5011185;28;20228;-73
2022/04/24 06:00:56;;;;;;;5.07;4.10;;;;;;;;;;5013831;28;20188;-73
2022/04/24 06:03:25;;;;;;;4.67;3.93;;;;;;;;;;5012354;28;20204;-73
2022/04/24 06:05:53;;;;;;;5.43;4.30;;;;;;;;;;5008719;28;20201;-74
2022/04/24 06:08:23;;;;;;;4.23;3.83;;;;;;;;;;5011934;28;20628;-73
2022/04/24 06:10:52;;;;;;;4.77;4.00;;;;;;;;;;5011788;28;20892;-74
2022/04/24 06:13:21;;;;;;;6.40;3.80;;;;;;;;;;5012232;28;20217;-73
2022/04/24 06:15:54;;;;;;;4.10;3.70;;;;;;;;;;5012336;28;20251;-74
2022/04/24 06:18:24;;;;;;;4.80;3.60;;;;;;;;;;5012160;28;20231;-74
2022/04/24 06:20:53;;;;;;;4.53;3.83;;;;;;;;;;5012682;28;20207;-73
2022/04/24 06:23:21;;;;;;;4.47;3.70;;;;;;;;;;5012560;28;20201;-74
2022/04/24 06:25:51;;;;;;;5.47;3.83;;;;;;;;;;5013230;28;20216;-74
2022/04/24 06:28:21;;;;;;;4.43;3.60;;;;;;;;;;5010995;28;20311;-73
2022/04/24 06:30:50;;;;;;;5.27;3.50;;;;;;;;;;5012076;28;20220;-74
2022/04/24 06:33:18;;;;;;;4.83;3.73;;;;;;;;;;5011513;28;20665;-73
2022/04/24 06:35:47;;;;;;;5.00;3.40;;;;;;;;;;5008331;28;20208;-74
2022/04/24 06:38:22;;;;;;;3.93;3.53;;;;;;;;;;5010482;28;20243;-73
2022/04/24 06:40:53;;;;;;;5.30;3.87;;;;;;;;;;5013338;28;20299;-74
2022/04/24 06:43:21;;;;;;;5.07;3.87;;;;;;;;;;5010458;28;20659;-74
2022/04/24 06:45:52;;;;;;;3.70;3.40;;;;;;;;;;5012324;28;20983;-74
2022/04/24 06:48:20;;;;;;;4.90;3.77;;;;;;;;;;5012236;28;20231;-74
2022/04/24 06:50:49;;;;;;;5.70;3.50;;;;;;;;;;5011124;28;20570;-74
2022/04/24 06:53:18;;;;;;;3.90;3.50;;;;;;;;;;5011106;28;20714;-74
2022/04/24 06:55:47;;;;;;;5.53;3.47;;;;;;;;;;5012841;28;20203;-74
2022/04/24 06:58:18;;;;;;;5.43;3.70;;;;;;;;;;5014041;28;20216;-74
2022/04/24 07:00:47;;;;;;;5.00;3.30;;;;;;;;;;5016869;28;20192;-74
2022/04/24 07:03:37;;;;;;;5.27;3.10;;;;;;;;;;5014681;28;20235;-74
2022/04/24 07:06:07;;;;;;;5.57;3.40;;;;;;;;;;5016555;28;20204;-74
2022/04/24 07:08:35;;;;;;;3.70;3.07;;;;;;;;;;5013386;28;20718;-74
2022/04/24 07:11:04;;;;;;;3.53;3.00;;;;;;;;;;5015796;28;20255;-75
2022/04/24 07:13:36;;;;;;;3.77;3.23;;;;;;;;;;4663965;28;9999601;-74
2022/04/24 07:16:05;;;;;;;4.10;3.30;;;;;;;;;;5009492;28;20193;-74
2022/04/24 07:18:35;;;;;;;4.47;3.60;;;;;;;;;;5015129;28;20258;-74
2022/04/24 07:21:06;;;;;;;4.17;3.60;;;;;;;;;;5017190;28;20262;-74
2022/04/24 07:23:35;;;;;;;3.77;3.37;;;;;;;;;;5015829;28;20219;-73
2022/04/24 07:26:03;;;;;;;4.80;3.13;;;;;;;;;;5017661;28;20204;-74
2022/04/24 07:28:32;;;;;;;5.03;3.33;;;;;;;;;;5016385;28;20224;-74
2022/04/24 07:31:02;;;;;;;4.40;3.17;;;;;;;;;;5016144;28;20263;-73
2022/04/24 07:33:31;;;;;;;5.07;3.10;;;;;;;;;;5016017;28;20305;-74
2022/04/24 07:35:59;;;;;;;4.70;3.17;;;;;;;;;;5013365;28;20204;-73
2022/04/24 07:38:28;;;;;;;4.87;3.03;;;;;;;;;;5013695;28;20283;-74
2022/04/24 07:40:56;;;;;;;3.93;3.30;;;;;;;;;;5020464;28;20204;-73
2022/04/24 07:43:25;;;;;;;5.57;3.40;;;;;;;;;;5015658;28;20231;-74
2022/04/24 07:45:54;;;;;;;5.57;3.40;;;;;;;;;;5014290;28;20204;-73
2022/04/24 07:48:24;;;;;;;4.70;3.27;;;;;;;;;;4999821;28;20216;-73
2022/04/24 07:50:53;;;;;;;4.53;3.50;;;;;;;;;;5013890;28;20228;-74
2022/04/24 07:53:22;;;;;;;5.57;3.10;;;;;;;;;;5014662;28;20201;-73
2022/04/24 07:55:52;;;;;;;3.53;3.17;;;;;;;;;;5015527;28;20262;-73
2022/04/24 07:58:20;;;;;;;4.23;3.10;;;;;;;;;;5013539;28;20303;-73
2022/04/24 08:00:49;;;;;;;4.17;3.40;;;;;;;;;;5013935;28;20196;-74
2022/04/24 08:03:19;;;;;;;3.77;3.30;;;;;;;;;;5015264;28;20255;-73
2022/04/24 08:05:54;;;;;;;5.40;3.23;;;;;;;;;;5015672;28;20205;-74
2022/04/24 08:08:23;;;;;;;5.87;3.47;;;;;;;;;;5014604;28;20231;-74
2022/04/24 08:10:52;;;;;;;3.77;3.27;;;;;;;;;;5006243;28;20231;-73
2022/04/24 08:13:21;;;;;;;4.47;2.97;;;;;;;;;;5011616;28;20212;-73
2022/04/24 08:15:50;;;;;;;5.00;3.00;;;;;;;;;;5013198;28;20213;-73
2022/04/24 08:18:19;;;;;;;4.53;3.40;;;;;;;;;;5010782;28;20699;-74
2022/04/24 08:20:48;;;;;;;3.73;3.10;;;;;;;;;;5011229;28;20250;-74
2022/04/24 08:23:17;;;;;;;3.53;3.13;;;;;;;;;;5013365;28;20205;-74
2022/04/24 08:25:47;;;;;;;6.37;3.67;;;;;;;;;;5011481;28;20251;-74
2022/04/24 08:28:16;;;;;;;5.10;3.23;;;;;;;;;;5003688;28;20287;-73
2022/04/24 08:30:45;;;;;;;6.03;3.60;;;;;;;;;;5011884;28;20263;-73
2022/04/24 08:33:15;;;;;;;4.43;3.40;;;;;;;;;;5011902;28;20205;-73
2022/04/24 08:35:45;;;;;;;4.67;3.33;;;;;;;;;;5000789;28;20219;-73
2022/04/24 08:38:13;;;;;;;4.60;3.10;;;;;;;;;;5010867;28;20236;-73
2022/04/24 08:40:44;;;;;;;4.70;3.57;;;;;;;;;;5013826;28;20211;-73
2022/04/24 08:43:14;;;;;;;4.57;3.23;;;;;;;;;;5015123;28;20200;-74
2022/04/24 08:45:43;;;;;;;4.10;3.20;;;;;;;;;;5012074;28;20204;-74
2022/04/24 08:48:12;;;;;;;3.27;2.97;;;;;;;;;;5007495;28;20224;-73
2022/04/24 08:50:41;;;;;;;5.70;3.70;;;;;;;;;;5011493;28;20200;-74
2022/04/24 08:53:10;;;;;;;3.90;3.50;;;;;;;;;;5006217;28;20233;-73
2022/04/24 08:55:38;;;;;;;4.23;3.17;;;;;;;;;;5011728;28;20208;-73
2022/04/24 08:58:08;;;;;;;3.67;3.30;;;;;;;;;;5011658;28;20705;-74
2022/04/24 09:00:38;;;;;;;3.57;3.27;;;;;;;;;;5012110;28;20737;-73
2022/04/24 09:03:07;;;;;;;5.60;3.60;;;;;;;;;;5011702;28;20204;-74
2022/04/24 09:05:36;;;;;;;3.47;3.17;;;;;;;;;;5009254;28;20228;-74
2022/04/24 09:08:08;;;;;;;5.13;3.30;;;;;;;;;;5007755;28;20233;-73
2022/04/24 09:10:58;;;;;;;3.67;3.20;;;;;;;;;;4996444;28;20262;-73
2022/04/24 09:16:20;;;;;;;7.30;3.40;;;;;;;;;;5007104;28;20941;-73
2022/04/24 09:18:49;;;;;;;4.20;3.63;;;;;;;;;;5012167;28;20954;-73
2022/04/24 09:21:17;;;;;;;3.70;3.40;;;;;;;;;;5000711;28;20207;-73
2022/04/24 09:23:46;;;;;;;4.57;3.20;;;;;;;;;;5013485;28;20219;-77
2022/04/24 09:26:16;;;;;;;4.47;3.30;;;;;;;;;;5011798;28;20670;-74
2022/04/24 09:28:46;;;;;;;3.90;3.03;;;;;;;;;;5011579;28;20224;-75
2022/04/24 09:31:15;;;;;;;4.10;3.70;;;;;;;;;;5010244;28;20205;-74
2022/04/24 09:33:44;;;;;;;4.00;3.30;;;;;;;;;;5014488;28;20228;-73
2022/04/24 09:36:14;;;;;;;4.75;3.72;;;;;;;;;;5012783;28;20204;-74
2022/04/24 09:38:43;;;;;;;4.03;3.33;;;;;;;;;;5009921;28;20649;-73
2022/04/24 09:41:19;;;;;;;5.20;3.80;;;;;;;;;;5005988;28;20201;-73
2022/04/24 09:43:49;;;;;;;4.47;3.72;;;;;;;;;;4998509;28;20219;-74
2022/04/24 09:46:28;;;;;;;4.88;3.65;;;;;;;;;;5010568;28;20778;-73
2022/04/24 09:48:58;;;;;;;4.63;3.50;;;;;;;;;;5006501;28;20200;-74
2022/04/24 09:51:27;;;;;;;5.13;3.30;;;;;;;;;;5007475;28;20211;-74
2022/04/24 09:53:59;;;;;;;3.65;3.28;;;;;;;;;;5008088;28;20568;-74
2022/04/24 09:56:28;;;;;;;3.95;3.35;;;;;;;;;;5009190;28;20209;-74
2022/04/24 09:58:58;;;;;;;3.33;2.97;;;;;;;;;;5008730;28;20201;-74
2022/04/24 10:01:27;;;;;;;4.57;3.42;;;;;;;;;;5011798;28;20549;-73
2022/04/24 10:03:57;;;;;;;3.60;3.30;;;;;;;;;;5011986;28;20209;-74
2022/04/24 10:06:26;;;;;;;3.80;3.42;;;;;;;;;;5010554;28;20200;-73
2022/04/24 10:08:55;;;;;;;4.00;3.60;;;;;;;;;;5010569;28;20205;-74
2022/04/24 10:11:24;;;;;;;4.53;3.53;;;;;;;;;;5011817;28;20212;-73
2022/04/24 10:13:53;;;;;;;4.22;3.33;;;;;;;;;;5011067;28;20232;-74
2022/04/24 10:16:33;;;;;;;3.95;3.55;;;;;;;;;;5009576;28;20596;-74
2022/04/24 10:19:06;;;;;;;5.82;3.47;;;;;;;;;;5009446;28;20749;-74
2022/04/24 10:21:53;;;;;;;3.85;3.20;;;;;;;;;;5006502;28;20678;-74
2022/04/24 10:24:21;;;;;;;4.10;3.72;;;;;;;;;;4999663;28;20227;-74
2022/04/24 10:26:53;;;;;;;4.55;3.33;;;;;;;;;;5010393;28;20220;-73
2022/04/24 10:29:23;;;;;;;4.10;3.75;;;;;;;;;;5007663;28;20258;-73
2022/04/24 10:31:53;;;;;;;6.28;3.58;;;;;;;;;;5007944;28;20200;-74
2022/04/24 10:34:23;;;;;;;3.58;3.20;;;;;;;;;;5005459;28;20213;-74
2022/04/24 10:36:55;;;;;;;3.80;3.40;;;;;;;;;;5008943;28;20220;-74
2022/04/24 10:39:24;;;;;;;4.20;3.40;;;;;;;;;;5008752;28;20231;-73
2022/04/24 10:42:02;;;;;;;4.07;3.78;;;;;;;;;;5007540;28;20295;-73
2022/04/24 10:44:32;;;;;;;4.20;3.40;;;;;;;;;;5008293;28;20208;-73
2022/04/24 10:47:11;;;;;;;5.70;3.70;;;;;;;;;;5006725;28;20226;-73
2022/04/24 10:49:40;;;;;;;4.88;3.95;;;;;;;;;;5012133;28;20208;-74
2022/04/24 10:52:08;;;;;;;3.53;3.22;;;;;;;;;;5010264;28;20206;-74
2022/04/24 10:54:38;;;;;;;5.72;3.60;;;;;;;;;;5001277;28;20279;-74
2022/04/24 10:57:17;;;;;;;3.83;3.53;;;;;;;;;;5001485;28;20230;-73
2022/04/24 10:59:48;;;;;;;6.32;3.53;;;;;;;;;;5007434;28;20204;-73
2022/04/24 11:02:22;;;;;;;4.75;3.70;;;;;;;;;;5006957;28;20224;-74
2022/04/24 11:04:59;;;;;;;4.65;3.50;;;;;;;;;;5009510;28;20262;-73
2022/04/24 11:07:27;;;;;;;4.85;3.35;;;;;;;;;;5008060;28;20231;-73
2022/04/24 11:10:01;;;;;;;5.05;3.38;;;;;;;;;;4998312;28;20556;-73
2022/04/24 11:12:31;;;;;;;4.32;3.40;;;;;;;;;;5007995;28;20259;-74
2022/04/24 11:15:02;;;;;;;3.55;3.25;;;;;;;;;;5011006;28;20686;-73
2022/04/24 11:17:32;;;;;;;6.03;3.60;;;;;;;;;;5008722;28;20221;-74
2022/04/24 11:20:03;;;;;;;4.75;4.25;;;;;;;;;;5006158;28;20201;-72
2022/04/24 11:25:02;;;;;;;4.18;3.75;;;;;;;;;;5047303;28;20303;-72
2022/04/24 11:27:31;;;;;;;3.78;3.40;;;;;;;;;;5038855;28;20273;-72
2022/04/24 11:29:59;;;;;;;3.53;3.10;;;;;;;;;;5029632;28;20258;-72
2022/04/24 11:32:28;;;;;;;3.63;3.20;;;;;;;;;;5019081;28;20288;-72
2022/04/24 11:34:58;;;;;;;4.53;3.55;;;;;;;;;;5016713;28;20199;-72
2022/04/24 11:37:26;;;;;;;5.43;3.75;;;;;;;;;;5028779;28;20234;-71
2022/04/24 11:40:01;;;;;;;4.40;4.00;;;;;;;;;;5030346;28;20752;-71
2022/04/24 11:42:30;;;;;;;4.80;3.45;;;;;;;;;;5026888;28;20208;-72
2022/04/24 11:50:32;;;;;;;4.95;3.40;;;;;;;;;;5030560;28;20223;-71
2022/04/24 11:53:21;;;;;;;3.70;3.40;;;;;;;;;;5030776;28;20255;-71
2022/04/24 11:56:04;;;;;;;3.92;3.60;;;;;;;;;;5025196;28;20235;-73
2022/04/24 11:58:36;;;;;;;3.70;3.40;;;;;;;;;;5032826;28;20718;-72
2022/04/24 12:01:07;;;;;;;4.70;3.50;;;;;;;;;;5023632;28;20208;-74
2022/04/24 12:03:37;;;;;;;4.15;3.38;;;;;;;;;;5032813;28;20207;-72
2022/04/24 12:06:07;;;;;;;6.93;4.25;;;;;;;;;;5032495;28;20199;-74
2022/04/24 12:08:44;;;;;;;4.70;3.80;;;;;;;;;;5027426;28;20223;-72
2022/04/24 12:11:13;;;;;;;5.43;3.85;;;;;;;;;;5027969;28;20199;-72
2022/04/24 12:13:42;;;;;;;3.53;3.22;;;;;;;;;;5032401;28;20231;-73
2022/04/24 12:16:10;;;;;;;4.55;3.28;;;;;;;;;;5025552;28;20211;-73
2022/04/24 12:18:40;;;;;;;3.70;3.28;;;;;;;;;;5028178;28;20227;-74
2022/04/24 12:21:20;;;;;;;4.85;3.72;;;;;;;;;;5030925;28;20207;-73
2022/04/24 12:23:50;;;;;;;3.60;3.20;;;;;;;;;;5027329;28;20274;-74
2022/04/24 12:26:21;;;;;;;4.22;3.50;;;;;;;;;;5032143;28;20196;-73
2022/04/24 12:28:50;;;;;;;4.70;3.50;;;;;;;;;;5030839;28;20702;-74
2022/04/24 12:31:22;;;;;;;5.00;3.92;;;;;;;;;;5031916;28;20211;-74
2022/04/24 12:33:52;;;;;;;6.50;3.38;;;;;;;;;;5025278;28;20304;-73
2022/04/24 12:36:22;;;;;;;3.75;3.30;;;;;;;;;;5021005;28;20208;-73
2022/04/24 12:38:58;;;;;;;4.32;3.50;;;;;;;;;;5031003;28;20235;-73
2022/04/24 12:41:56;;;;;;;3.78;3.35;;;;;;;;;;5033625;28;20294;-72
2022/04/24 12:44:41;;;;;;;3.90;2.95;;;;;;;;;;5029189;28;20196;-74
2022/04/24 12:47:10;;;;;;;4.15;3.20;;;;;;;;;;5030880;28;20215;-74
2022/04/24 12:49:39;;;;;;;3.92;3.25;;;;;;;;;;5030156;28;20200;-74
2022/04/24 12:52:09;;;;;;;3.60;3.10;;;;;;;;;;5026059;28;20208;-74
2022/04/24 12:54:38;;;;;;;3.50;3.20;;;;;;;;;;5027125;28;20237;-73
2022/04/24 12:57:07;;;;;;;3.42;3.13;;;;;;;;;;5029141;28;20223;-73
2022/04/24 12:59:36;;;;;;;5.53;3.30;;;;;;;;;;5021924;28;20204;-74
2022/04/24 13:02:05;;;;;;;4.50;3.42;;;;;;;;;;5030100;28;20701;-74
2022/04/24 13:04:34;;;;;;;4.20;3.22;;;;;;;;;;5029874;28;20831;-73
2022/04/24 13:07:03;;;;;;;5.40;3.40;;;;;;;;;;5032069;28;20634;-73
2022/04/24 13:09:33;;;;;;;5.93;3.80;;;;;;;;;;5030797;28;20212;-75
2022/04/24 13:12:02;;;;;;;4.18;3.85;;;;;;;;;;5027103;28;20192;-74
2022/04/24 13:14:30;;;;;;;5.53;3.40;;;;;;;;;;5032766;28;20707;-74
2022/04/24 13:19:46;;;;;;;4.47;3.40;;;;;;;;;;5031394;28;20200;-73
2022/04/24 13:22:14;;;;;;;4.28;3.88;;;;;;;;;;5026792;28;20211;-74
2022/04/24 13:24:44;;;;;;;5.22;3.70;;;;;;;;;;5030594;28;20207;-74
2022/04/24 13:27:13;;;;;;;4.10;3.70;;;;;;;;;;5026343;28;20224;-73
2022/04/24 13:29:41;;;;;;;3.95;3.63;;;;;;;;;;5024402;28;20249;-73
2022/04/24 13:32:12;;;;;;;3.90;3.58;;;;;;;;;;5033243;28;20658;-73
2022/04/24 13:34:42;;;;;;;5.13;3.55;;;;;;;;;;5019554;28;20683;-74
2022/04/24 13:39:58;;;;;;;4.18;3.70;;;;;;;;;;5023913;28;20200;-73
2022/04/24 13:42:27;;;;;;;4.65;3.90;;;;;;;;;;5028738;28;20732;-74
2022/04/24 13:44:55;;;;;;;4.55;4.15;;;;;;;;;;5025543;28;20204;-73
2022/04/24 13:47:25;;;;;;;4.10;3.70;;;;;;;;;;5029051;28;20228;-73
2022/04/24 13:49:53;;;;;;;4.45;3.88;;;;;;;;;;5028003;28;20277;-73
2022/04/24 13:52:22;;;;;;;6.00;3.70;;;;;;;;;;5025189;28;20207;-73
2022/04/24 13:54:50;;;;;;;4.03;3.65;;;;;;;;;;5028524;28;20219;-73
2022/04/24 13:57:21;;;;;;;5.55;3.80;;;;;;;;;;5011807;28;20229;-74
2022/04/24 13:59:50;;;;;;;3.85;3.40;;;;;;;;;;5019404;28;20254;-74
2022/04/24 14:02:22;;;;;;;4.90;4.00;;;;;;;;;;5032373;28;20199;-74
2022/04/24 14:04:54;;;;;;;4.60;3.40;;;;;;;;;;5091180;22;20231;-73
2022/04/24 14:07:23;;;;;;;4.00;3.70;;;;;;;;;;5034506;28;20224;-73
2022/04/24 14:09:51;;;;;;;6.88;3.90;;;;;;;;;;5029152;28;20211;-73
2022/04/24 14:12:21;;;;;;;4.28;3.85;;;;;;;;;;5028984;28;20191;-74
2022/04/24 14:14:49;;;;;;;6.75;4.25;;;;;;;;;;5023510;28;20223;-73
2022/04/24 14:17:18;;;;;;;5.03;4.22;;;;;;;;;;5029772;28;20223;-73
2022/04/24 14:19:46;;;;;;;4.32;3.83;;;;;;;;;;5033342;28;20650;-73
2022/04/24 14:22:15;;;;;;;4.68;4.28;;;;;;;;;;5028905;28;20266;-73
2022/04/24 14:24:43;;;;;;;4.55;4.05;;;;;;;;;;5029264;28;20208;-72
2022/04/24 14:27:33;;;;;;;4.55;3.70;;;;;;;;;;5023380;28;20220;-73
2022/04/24 14:30:01;;;;;;;6.07;3.55;;;;;;;;;;5024568;28;20215;-73
2022/04/24 14:32:32;;;;;;;4.32;4.00;;;;;;;;;;5017846;28;20208;-74
2022/04/24 14:35:00;;;;;;;6.07;3.95;;;;;;;;;;5026161;28;20235;-73
2022/04/24 14:37:31;;;;;;;4.80;3.92;;;;;;;;;;5022628;28;20224;-74
2022/04/24 14:40:00;;;;;;;4.45;4.05;;;;;;;;;;5029949;28;20208;-74
2022/04/24 14:42:33;;;;;;;3.90;3.60;;;;;;;;;;5029116;28;20200;-73
2022/04/24 14:45:03;;;;;;;4.20;3.83;;;;;;;;;;5029658;28;20631;-72
2022/04/24 14:55:56;;;;;;;4.20;3.80;;;;;;;;;;5016136;28;20228;-74
2022/04/24 14:58:27;;;;;;;4.78;3.75;;;;;;;;;;5011763;28;20580;-72
2022/04/24 15:00:56;;;;;;;4.90;4.13;;;;;;;;;;5027868;28;20219;-73
2022/04/24 15:03:25;;;;;;;5.72;4.07;;;;;;;;;;5025545;28;20286;-73
2022/04/24 15:05:55;;;;;;;4.30;3.90;;;;;;;;;;5028285;28;20212;-73
2022/04/24 15:08:25;;;;;;;4.78;4.22;;;;;;;;;;5027893;28;20312;-73
2022/04/24 15:10:53;;;;;;;4.00;3.70;;;;;;;;;;5024572;28;20207;-73
2022/04/24 15:13:22;;;;;;;4.40;4.00;;;;;;;;;;5028929;28;20287;-73
2022/04/24 15:15:50;;;;;;;4.97;4.32;;;;;;;;;;5029388;28;20227;-73
2022/04/24 15:18:25;;;;;;;5.07;4.32;;;;;;;;;;5030419;28;20216;-73
2022/04/24 15:20:53;;;;;;;4.47;4.07;;;;;;;;;;5033563;28;20560;-73
2022/04/24 15:23:26;;;;;;;5.22;4.15;;;;;;;;;;5036340;28;20250;-73
2022/04/24 15:25:54;;;;;;;4.45;4.05;;;;;;;;;;5036282;28;20188;-73
2022/04/24 15:28:22;;;;;;;4.75;4.05;;;;;;;;;;5034239;28;20635;-73